Bauska, Latvia

10:06 PM EET on January 18, 2017 (GMT +0200)
Riga International | | Change Station

Elev 23 ft 56.97 °N, 24.05 °E | Updated 16 minutes ago

Overcast
Overcast
32 °F
Feels Like 22 °F
N
13
Wind Variable Wind from SSW

Today
High -- | Low -- °F
--% Chance of Precip.
Yesterday
High -- | Low -- °F
Precip. -- in
Pressure 30.39 in
Visibility 6.2 miles
Clouds Overcast 600 ft
Windchill 22 °F
Dew Point 32 °F
Humidity 100%
Rainfall 0.00 in
Snow Depth Not available.
8:42 AM 4:24 PM
Waning Gibbous, 60% visible
METAR EVRA 181950Z 20011KT 9999 OVC006 00/00 Q1029 R18/390149 NOSIG
Pressure 30.39 in
Visibility 6.2 miles
Clouds Overcast 600 ft
Windchill 22 °F
Dew Point 32 °F
Humidity 100%
Rainfall 0.00 in
Snow Depth Not available.
8:42 AM 4:24 PM
Waning Gibbous, 60% visible
METAR EVRA 181950Z 20011KT 9999 OVC006 00/00 Q1029 R18/390149 NOSIG

Get Your Daily Forecast Email!

Thanks for signing up!

Be on the lookout for a verification email in your inbox.

You'll start receiving the daily forecast at 8 AM.

×

10-Day Weather Forecast

×

Almanac

Astronomy

Jan. 18, 2017 Rise Set
Actual Time
Civil Twilight
Nautical Twilight
Astronomical Twilight
Moon
Length of Visible Light
Length of Day
Tomorrow will be .
, % of the Moon is Illuminated

Today's Extremes

Country Highs Country Lows

Community

WunderPhotos

Upload Photos

1,962,540 photos uploaded!

WunderBlog® & News

Nearby

Air Quality

  Air Quality AQ Index Pollutant
Not available.

Snow Depth

Station Depth Elevation

Earthquake Activity

City Distance Mag. Time & Date
Minimum magnitude displayed is 2.5.

Coastal Water Temperatures

Place Temperature

Stations

Nearby Weather Stations

Station Location Temp. Windchill Dew Point Humidity Wind Precip. Elev Updated Type